sensor_id;sensor_type;location;lat;lon;timestamp;pressure;altitude;pressure_sealevel;temperature;humidity
5966;BME280;3009;43.224;27.976;2023-05-16T00:02:17;100397.22;;;12.13;100.00
5966;BME280;3009;43.224;27.976;2023-05-16T00:04:46;100397.69;;;12.15;100.00
5966;BME280;3009;43.224;27.976;2023-05-16T00:07:15;100398.00;;;12.13;100.00
5966;BME280;3009;43.224;27.976;2023-05-16T00:09:45;100398.00;;;12.13;100.00
5966;BME280;3009;43.224;27.976;2023-05-16T00:12:14;100394.53;;;12.13;100.00
5966;BME280;3009;43.224;27.976;2023-05-16T00:14:43;100387.88;;;12.10;100.00
5966;BME280;3009;43.224;27.976;2023-05-16T00:17:12;100385.84;;;12.07;100.00
5966;BME280;3009;43.224;27.976;2023-05-16T00:19:43;100376.19;;;12.06;100.00
5966;BME280;3009;43.224;27.976;2023-05-16T00:22:13;100379.34;;;12.08;100.00
5966;BME280;3009;43.224;27.976;2023-05-16T00:24:42;100379.22;;;11.96;100.00
5966;BME280;3009;43.224;27.976;2023-05-16T00:27:12;100386.78;;;11.94;100.00
5966;BME280;3009;43.224;27.976;2023-05-16T00:29:40;100387.69;;;11.89;100.00
5966;BME280;3009;43.224;27.976;2023-05-16T00:32:09;100400.72;;;11.96;100.00
5966;BME280;3009;43.224;27.976;2023-05-16T00:34:37;100393.28;;;11.93;100.00
5966;BME280;3009;43.224;27.976;2023-05-16T00:37:06;100388.03;;;11.87;100.00
5966;BME280;3009;43.224;27.976;2023-05-16T00:39:34;100381.38;;;11.85;100.00
5966;BME280;3009;43.224;27.976;2023-05-16T00:42:03;100378.91;;;11.97;100.00
5966;BME280;3009;43.224;27.976;2023-05-16T00:44:33;100373.63;;;11.92;100.00
5966;BME280;3009;43.224;27.976;2023-05-16T00:47:01;100379.84;;;11.93;100.00
5966;BME280;3009;43.224;27.976;2023-05-16T00:49:30;100385.34;;;11.87;100.00
5966;BME280;3009;43.224;27.976;2023-05-16T00:51:58;100385.69;;;11.95;100.00
5966;BME280;3009;43.224;27.976;2023-05-16T00:54:27;100389.28;;;11.90;100.00
5966;BME280;3009;43.224;27.976;2023-05-16T00:56:57;100399.44;;;11.93;100.00
5966;BME280;3009;43.224;27.976;2023-05-16T00:59:26;100397.06;;;12.00;100.00
5966;BME280;3009;43.224;27.976;2023-05-16T01:01:56;100396.44;;;11.95;100.00
5966;BME280;3009;43.224;27.976;2023-05-16T01:04:25;100393.44;;;11.96;100.00
5966;BME280;3009;43.224;27.976;2023-05-16T01:06:55;100389.97;;;11.96;100.00
5966;BME280;3009;43.224;27.976;2023-05-16T01:09:24;100388.38;;;11.95;100.00
5966;BME280;3009;43.224;27.976;2023-05-16T01:11:57;100388.38;;;11.95;100.00
5966;BME280;3009;43.224;27.976;2023-05-16T01:14:37;100378.53;;;11.90;100.00
5966;BME280;3009;43.224;27.976;2023-05-16T01:17:14;100381.59;;;11.97;100.00
5966;BME280;3009;43.224;27.976;2023-05-16T01:19:55;100382.38;;;11.98;100.00
5966;BME280;3009;43.224;27.976;2023-05-16T01:22:29;100378.25;;;12.00;100.00
5966;BME280;3009;43.224;27.976;2023-05-16T01:25:26;100376.50;;;12.13;100.00
5966;BME280;3009;43.224;27.976;2023-05-16T01:28:00;100367.97;;;12.11;100.00
5966;BME280;3009;43.224;27.976;2023-05-16T01:30:33;100362.91;;;12.10;100.00
5966;BME280;3009;43.224;27.976;2023-05-16T01:33:02;100369.84;;;12.11;100.00
5966;BME280;3009;43.224;27.976;2023-05-16T01:35:30;100377.13;;;12.10;100.00
5966;BME280;3009;43.224;27.976;2023-05-16T01:38:05;100370.81;;;12.15;100.00
5966;BME280;3009;43.224;27.976;2023-05-16T01:40:44;100370.78;;;12.23;100.00
5966;BME280;3009;43.224;27.976;2023-05-16T01:43:18;100372.22;;;12.21;100.00
5966;BME280;3009;43.224;27.976;2023-05-16T01:45:54;100374.13;;;12.29;100.00
5966;BME280;3009;43.224;27.976;2023-05-16T01:48:29;100369.06;;;12.19;100.00
5966;BME280;3009;43.224;27.976;2023-05-16T01:51:01;100362.91;;;12.18;100.00
5966;BME280;3009;43.224;27.976;2023-05-16T01:53:35;100365.41;;;12.23;100.00
5966;BME280;3009;43.224;27.976;2023-05-16T01:56:09;100371.44;;;12.20;100.00
5966;BME280;3009;43.224;27.976;2023-05-16T01:58:40;100370.78;;;12.23;100.00
5966;BME280;3009;43.224;27.976;2023-05-16T02:01:09;100372.22;;;12.21;100.00
5966;BME280;3009;43.224;27.976;2023-05-16T02:03:39;100374.25;;;12.24;100.00
5966;BME280;3009;43.224;27.976;2023-05-16T02:06:08;100380.75;;;12.23;100.00
5966;BME280;3009;43.224;27.976;2023-05-16T02:08:36;100377.13;;;12.19;100.00
5966;BME280;3009;43.224;27.976;2023-05-16T02:11:05;100379.19;;;12.22;100.00
5966;BME280;3009;43.224;27.976;2023-05-16T02:13:33;100382.66;;;12.22;100.00
5966;BME280;3009;43.224;27.976;2023-05-16T02:16:03;100375.41;;;12.23;100.00
5966;BME280;3009;43.224;27.976;2023-05-16T02:18:31;100375.41;;;12.23;100.00
5966;BME280;3009;43.224;27.976;2023-05-16T02:21:01;100379.19;;;12.22;100.00
5966;BME280;3009;43.224;27.976;2023-05-16T02:23:29;100380.59;;;12.28;100.00
5966;BME280;3009;43.224;27.976;2023-05-16T02:25:57;100374.91;;;12.30;100.00
5966;BME280;3009;43.224;27.976;2023-05-16T02:28:26;100377.59;;;12.30;100.00
5966;BME280;3009;43.224;27.976;2023-05-16T02:30:58;100380.41;;;12.33;100.00
5966;BME280;3009;43.224;27.976;2023-05-16T02:33:28;100365.88;;;12.34;100.00
5966;BME280;3009;43.224;27.976;2023-05-16T02:35:56;100368.88;;;12.33;100.00
5966;BME280;3009;43.224;27.976;2023-05-16T02:38:25;100370.78;;;12.32;100.00
5966;BME280;3009;43.224;27.976;2023-05-16T02:40:53;100367.59;;;12.39;100.00
5966;BME280;3009;43.224;27.976;2023-05-16T02:43:21;100370.91;;;12.45;100.00
5966;BME280;3009;43.224;27.976;2023-05-16T02:45:50;100367.13;;;12.37;100.00
5966;BME280;3009;43.224;27.976;2023-05-16T02:48:19;100359.06;;;12.37;100.00
5966;BME280;3009;43.224;27.976;2023-05-16T02:50:48;100359.69;;;12.43;100.00
5966;BME280;3009;43.224;27.976;2023-05-16T02:53:17;100370.72;;;12.50;100.00
5966;BME280;3009;43.224;27.976;2023-05-16T02:55:46;100375.66;;;12.48;100.00
5966;BME280;3009;43.224;27.976;2023-05-16T02:58:14;100369.31;;;12.44;100.00
5966;BME280;3009;43.224;27.976;2023-05-16T03:00:42;100371.41;;;12.38;100.00
5966;BME280;3009;43.224;27.976;2023-05-16T03:03:11;100371.09;;;12.39;100.00
5966;BME280;3009;43.224;27.976;2023-05-16T03:05:39;100366.94;;;12.51;100.00
5966;BME280;3009;43.224;27.976;2023-05-16T03:08:09;100369.13;;;12.57;100.00
5966;BME280;3009;43.224;27.976;2023-05-16T03:10:37;100369.50;;;12.47;100.00
5966;BME280;3009;43.224;27.976;2023-05-16T03:13:06;100371.53;;;12.50;100.00
5966;BME280;3009;43.224;27.976;2023-05-16T03:15:34;100369.94;;;12.49;100.00
5966;BME280;3009;43.224;27.976;2023-05-16T03:18:02;100376.41;;;12.57;100.00
5966;BME280;3009;43.224;27.976;2023-05-16T03:20:31;100366.28;;;12.54;100.00
5966;BME280;3009;43.224;27.976;2023-05-16T03:22:59;100373.56;;;12.62;100.00
5966;BME280;3009;43.224;27.976;2023-05-16T03:25:29;100369.91;;;12.67;100.00
5966;BME280;3009;43.224;27.976;2023-05-16T03:27:57;100369.75;;;12.63;100.00
5966;BME280;3009;43.224;27.976;2023-05-16T03:30:26;100371.00;;;12.66;100.00
5966;BME280;3009;43.224;27.976;2023-05-16T03:32:54;100372.41;;;12.72;100.00
5966;BME280;3009;43.224;27.976;2023-05-16T03:35:23;100370.56;;;12.64;100.00
5966;BME280;3009;43.224;27.976;2023-05-16T03:37:52;100368.63;;;12.73;100.00
5966;BME280;3009;43.224;27.976;2023-05-16T03:40:20;100368.78;;;12.68;100.00
5966;BME280;3009;43.224;27.976;2023-05-16T03:42:50;100375.09;;;12.72;100.00
5966;BME280;3009;43.224;27.976;2023-05-16T03:45:18;100377.16;;;12.75;100.00
5966;BME280;3009;43.224;27.976;2023-05-16T03:47:48;100373.50;;;12.71;100.00
5966;BME280;3009;43.224;27.976;2023-05-16T03:50:16;100379.06;;;12.74;100.00
5966;BME280;3009;43.224;27.976;2023-05-16T03:52:45;100373.03;;;12.77;100.00
5966;BME280;3009;43.224;27.976;2023-05-16T03:55:13;100381.84;;;12.87;100.00
5966;BME280;3009;43.224;27.976;2023-05-16T03:57:43;100383.56;;;12.91;100.00
5966;BME280;3009;43.224;27.976;2023-05-16T04:00:14;100379.78;;;12.92;100.00
5966;BME280;3009;43.224;27.976;2023-05-16T04:02:43;100379.63;;;12.89;100.00
5966;BME280;3009;43.224;27.976;2023-05-16T04:05:11;100382.81;;;12.82;100.00
5966;BME280;3009;43.224;27.976;2023-05-16T04:07:40;100385.19;;;12.84;100.00
5966;BME280;3009;43.224;27.976;2023-05-16T04:10:09;100392.59;;;12.96;100.00
5966;BME280;3009;43.224;27.976;2023-05-16T04:12:38;100392.41;;;13.01;100.00
5966;BME280;3009;43.224;27.976;2023-05-16T04:15:07;100402.81;;;13.11;100.00
5966;BME280;3009;43.224;27.976;2023-05-16T04:17:37;100406.09;;;13.17;100.00
5966;BME280;3009;43.224;27.976;2023-05-16T04:20:06;100408.94;;;13.20;100.00
5966;BME280;3009;43.224;27.976;2023-05-16T04:22:34;100410.03;;;13.19;100.00
5966;BME280;3009;43.224;27.976;2023-05-16T04:25:03;100408.47;;;13.18;100.00
5966;BME280;3009;43.224;27.976;2023-05-16T04:27:32;100411.09;;;13.27;100.00
5966;BME280;3009;43.224;27.976;2023-05-16T04:30:00;100403.50;;;13.29;100.00
5966;BME280;3009;43.224;27.976;2023-05-16T04:32:29;100404.28;;;13.29;100.00
5966;BME280;3009;43.224;27.976;2023-05-16T04:35:01;100403.94;;;13.40;100.00
5966;BME280;3009;43.224;27.976;2023-05-16T04:37:30;100405.25;;;13.34;100.00
5966;BME280;3009;43.224;27.976;2023-05-16T04:39:58;100404.94;;;13.35;100.00
5966;BME280;3009;43.224;27.976;2023-05-16T04:42:27;100400.31;;;13.27;100.00
5966;BME280;3009;43.224;27.976;2023-05-16T04:44:56;100400.97;;;13.24;100.00
5966;BME280;3009;43.224;27.976;2023-05-16T04:47:24;100397.06;;;13.21;100.00
5966;BME280;3009;43.224;27.976;2023-05-16T04:49:53;100392.41;;;13.30;100.00
5966;BME280;3009;43.224;27.976;2023-05-16T04:52:23;100388.13;;;13.29;100.00
5966;BME280;3009;43.224;27.976;2023-05-16T04:54:51;100387.06;;;13.22;100.00
5966;BME280;3009;43.224;27.976;2023-05-16T04:57:20;100379.31;;;13.20;100.00
5966;BME280;3009;43.224;27.976;2023-05-16T04:59:48;100373.41;;;13.27;100.00
5966;BME280;3009;43.224;27.976;2023-05-16T05:02:16;100387.34;;;13.38;100.00
5966;BME280;3009;43.224;27.976;2023-05-16T05:04:45;100372.56;;;13.44;100.00
5966;BME280;3009;43.224;27.976;2023-05-16T05:07:13;100373.00;;;13.46;100.00
5966;BME280;3009;43.224;27.976;2023-05-16T05:09:43;100364.16;;;13.67;100.00
5966;BME280;3009;43.224;27.976;2023-05-16T05:12:12;100367.47;;;14.06;100.00
5966;BME280;3009;43.224;27.976;2023-05-16T05:14:40;100358.44;;;14.23;100.00
5966;BME280;3009;43.224;27.976;2023-05-16T05:17:09;100349.59;;;14.47;100.00
5966;BME280;3009;43.224;27.976;2023-05-16T05:19:38;100342.47;;;14.76;100.00
5966;BME280;3009;43.224;27.976;2023-05-16T05:22:06;100328.56;;;15.39;100.00
5966;BME280;3009;43.224;27.976;2023-05-16T05:24:35;100340.09;;;15.23;100.00
5966;BME280;3009;43.224;27.976;2023-05-16T05:27:09;100336.03;;;15.70;100.00
5966;BME280;3009;43.224;27.976;2023-05-16T05:29:39;100334.03;;;15.55;100.00
5966;BME280;3009;43.224;27.976;2023-05-16T05:32:08;100337.72;;;15.75;100.00
5966;BME280;3009;43.224;27.976;2023-05-16T05:34:36;100332.50;;;16.10;100.00
5966;BME280;3009;43.224;27.976;2023-05-16T05:37:05;100347.16;;;16.09;100.00
5966;BME280;3009;43.224;27.976;2023-05-16T05:39:33;100359.50;;;15.94;100.00
5966;BME280;3009;43.224;27.976;2023-05-16T05:42:02;100368.69;;;15.77;100.00
5966;BME280;3009;43.224;27.976;2023-05-16T05:44:31;100358.75;;;15.82;100.00
5966;BME280;3009;43.224;27.976;2023-05-16T05:47:00;100363.31;;;15.53;100.00
5966;BME280;3009;43.224;27.976;2023-05-16T05:49:29;100359.22;;;15.18;100.00
5966;BME280;3009;43.224;27.976;2023-05-16T05:51:58;100352.16;;;15.01;100.00
5966;BME280;3009;43.224;27.976;2023-05-16T05:54:26;100354.28;;;14.83;100.00
5966;BME280;3009;43.224;27.976;2023-05-16T05:56:56;100344.03;;;15.01;100.00
5966;BME280;3009;43.224;27.976;2023-05-16T05:59:24;100344.16;;;14.68;100.00
5966;BME280;3009;43.224;27.976;2023-05-16T06:01:54;100342.13;;;15.27;100.00
5966;BME280;3009;43.224;27.976;2023-05-16T06:04:23;100349.38;;;15.51;100.00
5966;BME280;3009;43.224;27.976;2023-05-16T06:06:52;100346.91;;;16.15;100.00
5966;BME280;3009;43.224;27.976;2023-05-16T06:09:20;100344.66;;;16.48;100.00
5966;BME280;3009;43.224;27.976;2023-05-16T06:11:49;100331.31;;;16.40;100.00
5966;BME280;3009;43.224;27.976;2023-05-16T06:14:18;100326.53;;;17.16;100.00
5966;BME280;3009;43.224;27.976;2023-05-16T06:16:47;100323.00;;;16.96;100.00
5966;BME280;3009;43.224;27.976;2023-05-16T06:19:17;100320.50;;;17.23;100.00
5966;BME280;3009;43.224;27.976;2023-05-16T06:21:45;100327.97;;;16.78;100.00
5966;BME280;3009;43.224;27.976;2023-05-16T06:24:14;100313.03;;;17.36;100.00
5966;BME280;3009;43.224;27.976;2023-05-16T06:26:42;100315.94;;;17.86;100.00
5966;BME280;3009;43.224;27.976;2023-05-16T06:29:11;100305.00;;;18.94;93.62
5966;BME280;3009;43.224;27.976;2023-05-16T06:31:40;100304.75;;;18.53;96.90
5966;BME280;3009;43.224;27.976;2023-05-16T06:34:08;100295.78;;;18.76;94.24
5966;BME280;3009;43.224;27.976;2023-05-16T06:36:38;100299.84;;;18.86;91.17
5966;BME280;3009;43.224;27.976;2023-05-16T06:39:06;100305.75;;;17.99;96.69
5966;BME280;3009;43.224;27.976;2023-05-16T06:41:35;100303.91;;;17.83;100.00
5966;BME280;3009;43.224;27.976;2023-05-16T06:44:03;100305.81;;;17.83;98.96
5966;BME280;3009;43.224;27.976;2023-05-16T06:46:32;100310.69;;;16.83;100.00
5966;BME280;3009;43.224;27.976;2023-05-16T06:49:00;100298.72;;;16.84;100.00
5966;BME280;3009;43.224;27.976;2023-05-16T06:51:29;100293.88;;;16.42;100.00
5966;BME280;3009;43.224;27.976;2023-05-16T06:53:59;100293.84;;;16.74;100.00
5966;BME280;3009;43.224;27.976;2023-05-16T06:56:30;100299.00;;;16.95;100.00
5966;BME280;3009;43.224;27.976;2023-05-16T06:58:58;100292.38;;;16.76;100.00
5966;BME280;3009;43.224;27.976;2023-05-16T07:01:27;100308.84;;;15.91;100.00
5966;BME280;3009;43.224;27.976;2023-05-16T07:03:56;100304.56;;;17.02;100.00
5966;BME280;3009;43.224;27.976;2023-05-16T07:06:25;100308.53;;;16.73;100.00
5966;BME280;3009;43.224;27.976;2023-05-16T07:08:53;100310.03;;;17.22;100.00
5966;BME280;3009;43.224;27.976;2023-05-16T07:11:23;100312.06;;;17.44;100.00
5966;BME280;3009;43.224;27.976;2023-05-16T07:13:51;100332.13;;;18.21;99.01
5966;BME280;3009;43.224;27.976;2023-05-16T07:16:20;100326.22;;;17.57;100.00
5966;BME280;3009;43.224;27.976;2023-05-16T07:18:48;100331.81;;;17.09;100.00
5966;BME280;3009;43.224;27.976;2023-05-16T07:21:18;100323.22;;;18.44;99.69
5966;BME280;3009;43.224;27.976;2023-05-16T07:23:46;100326.06;;;19.32;86.20
5966;BME280;3009;43.224;27.976;2023-05-16T07:26:15;100328.03;;;19.04;86.90
5966;BME280;3009;43.224;27.976;2023-05-16T07:28:45;100340.03;;;18.53;87.46
5966;BME280;3009;43.224;27.976;2023-05-16T07:31:13;100332.53;;;19.20;86.74
5966;BME280;3009;43.224;27.976;2023-05-16T07:33:42;100334.09;;;19.51;82.93
5966;BME280;3009;43.224;27.976;2023-05-16T07:36:12;100342.00;;;19.29;84.98
5966;BME280;3009;43.224;27.976;2023-05-16T07:38:44;100332.97;;;20.24;76.98
5966;BME280;3009;43.224;27.976;2023-05-16T07:41:12;100336.22;;;19.69;79.23
5966;BME280;3009;43.224;27.976;2023-05-16T07:43:40;100329.88;;;18.97;87.47
5966;BME280;3009;43.224;27.976;2023-05-16T07:46:10;100330.50;;;19.43;83.98
5966;BME280;3009;43.224;27.976;2023-05-16T07:48:40;100332.53;;;18.23;89.63
5966;BME280;3009;43.224;27.976;2023-05-16T07:51:08;100337.78;;;16.99;100.00
5966;BME280;3009;43.224;27.976;2023-05-16T07:53:36;100332.50;;;17.42;100.00
5966;BME280;3009;43.224;27.976;2023-05-16T07:56:06;100344.84;;;17.39;100.00
5966;BME280;3009;43.224;27.976;2023-05-16T07:58:34;100348.94;;;17.49;100.00
5966;BME280;3009;43.224;27.976;2023-05-16T08:01:03;100357.16;;;17.17;100.00
5966;BME280;3009;43.224;27.976;2023-05-16T08:03:34;100355.50;;;17.87;100.00
5966;BME280;3009;43.224;27.976;2023-05-16T08:06:02;100353.13;;;17.66;100.00
5966;BME280;3009;43.224;27.976;2023-05-16T08:08:31;100357.59;;;17.94;100.00
5966;BME280;3009;43.224;27.976;2023-05-16T08:11:00;100360.56;;;17.69;100.00
5966;BME280;3009;43.224;27.976;2023-05-16T08:13:28;100362.84;;;18.49;97.74
5966;BME280;3009;43.224;27.976;2023-05-16T08:15:57;100362.47;;;18.50;95.60
5966;BME280;3009;43.224;27.976;2023-05-16T08:18:26;100362.81;;;18.72;94.45
5966;BME280;3009;43.224;27.976;2023-05-16T08:20:56;100361.44;;;17.73;99.84
5966;BME280;3009;43.224;27.976;2023-05-16T08:23:24;100360.91;;;18.26;94.95
5966;BME280;3009;43.224;27.976;2023-05-16T08:25:52;100363.63;;;18.49;92.11
5966;BME280;3009;43.224;27.976;2023-05-16T08:28:21;100367.47;;;17.86;97.42
5966;BME280;3009;43.224;27.976;2023-05-16T08:30:49;100364.00;;;18.05;94.37
5966;BME280;3009;43.224;27.976;2023-05-16T08:33:18;100362.03;;;18.25;91.97
5966;BME280;3009;43.224;27.976;2023-05-16T08:35:47;100366.59;;;18.64;89.08
5966;BME280;3009;43.224;27.976;2023-05-16T08:38:17;100364.69;;;18.21;91.15
5966;BME280;3009;43.224;27.976;2023-05-16T08:40:45;100361.75;;;18.53;87.73
5966;BME280;3009;43.224;27.976;2023-05-16T08:43:14;100356.69;;;18.52;89.61
5966;BME280;3009;43.224;27.976;2023-05-16T08:45:43;100357.97;;;17.92;93.43
5966;BME280;3009;43.224;27.976;2023-05-16T08:48:14;100355.31;;;17.96;94.16
5966;BME280;3009;43.224;27.976;2023-05-16T08:50:43;100350.06;;;17.67;97.79
5966;BME280;3009;43.224;27.976;2023-05-16T08:53:13;100344.38;;;18.12;96.12
5966;BME280;3009;43.224;27.976;2023-05-16T08:55:46;100341.81;;;18.42;93.33
5966;BME280;3009;43.224;27.976;2023-05-16T08:58:16;100348.25;;;18.57;92.95
5966;BME280;3009;43.224;27.976;2023-05-16T09:00:45;100345.91;;;17.89;95.69
5966;BME280;3009;43.224;27.976;2023-05-16T09:03:15;100346.16;;;18.04;93.74
5966;BME280;3009;43.224;27.976;2023-05-16T09:05:43;100341.50;;;17.46;98.37
5966;BME280;3009;43.224;27.976;2023-05-16T09:08:12;100351.41;;;18.36;95.30
5966;BME280;3009;43.224;27.976;2023-05-16T09:10:40;100354.16;;;17.77;93.95
5966;BME280;3009;43.224;27.976;2023-05-16T09:13:10;100356.28;;;17.48;99.30
5966;BME280;3009;43.224;27.976;2023-05-16T09:15:39;100343.94;;;18.10;97.01
5966;BME280;3009;43.224;27.976;2023-05-16T09:18:10;100337.50;;;18.41;89.05
5966;BME280;3009;43.224;27.976;2023-05-16T09:20:43;100348.00;;;18.66;90.69
5966;BME280;3009;43.224;27.976;2023-05-16T09:23:13;100331.28;;;18.87;84.92
5966;BME280;3009;43.224;27.976;2023-05-16T09:25:43;100331.34;;;18.44;90.19
5966;BME280;3009;43.224;27.976;2023-05-16T09:28:13;100327.84;;;18.67;88.66
5966;BME280;3009;43.224;27.976;2023-05-16T09:30:45;100330.88;;;18.38;91.48
5966;BME280;3009;43.224;27.976;2023-05-16T09:33:14;100325.00;;;18.59;90.80
5966;BME280;3009;43.224;27.976;2023-05-16T09:35:43;100319.91;;;18.54;90.20
5966;BME280;3009;43.224;27.976;2023-05-16T09:38:15;100305.16;;;18.55;90.69
5966;BME280;3009;43.224;27.976;2023-05-16T09:40:44;100310.78;;;18.20;91.48
5966;BME280;3009;43.224;27.976;2023-05-16T09:43:15;100312.47;;;18.28;94.03
5966;BME280;3009;43.224;27.976;2023-05-16T09:45:45;100306.81;;;18.14;94.69
5966;BME280;3009;43.224;27.976;2023-05-16T09:48:15;100316.09;;;17.74;97.53
5966;BME280;3009;43.224;27.976;2023-05-16T09:50:48;100311.69;;;18.28;96.10
5966;BME280;3009;43.224;27.976;2023-05-16T09:53:24;100315.66;;;18.34;92.57
5966;BME280;3009;43.224;27.976;2023-05-16T09:56:02;100318.59;;;17.82;92.86
5966;BME280;3009;43.224;27.976;2023-05-16T09:58:33;100316.66;;;18.02;95.40
5966;BME280;3009;43.224;27.976;2023-05-16T10:01:02;100319.25;;;17.76;95.59
5966;BME280;3009;43.224;27.976;2023-05-16T10:03:33;100314.25;;;17.58;98.35
5966;BME280;3009;43.224;27.976;2023-05-16T10:06:02;100313.09;;;18.18;94.43
5966;BME280;3009;43.224;27.976;2023-05-16T10:08:33;100308.25;;;18.31;92.05
5966;BME280;3009;43.224;27.976;2023-05-16T10:11:03;100305.78;;;18.22;92.88
5966;BME280;3009;43.224;27.976;2023-05-16T10:13:34;100303.75;;;17.76;97.46
5966;BME280;3009;43.224;27.976;2023-05-16T10:16:06;100293.22;;;17.91;98.19
5966;BME280;3009;43.224;27.976;2023-05-16T10:18:35;100286.97;;;18.10;95.80
5966;BME280;3009;43.224;27.976;2023-05-16T10:21:07;100292.19;;;18.22;97.78
5966;BME280;3009;43.224;27.976;2023-05-16T10:23:40;100293.91;;;18.30;95.07
5966;BME280;3009;43.224;27.976;2023-05-16T10:26:10;100288.06;;;17.66;98.05
5966;BME280;3009;43.224;27.976;2023-05-16T10:28:42;100283.66;;;17.38;97.37
5966;BME280;3009;43.224;27.976;2023-05-16T10:31:11;100273.69;;;18.28;98.85
5966;BME280;3009;43.224;27.976;2023-05-16T10:33:41;100274.88;;;18.80;92.83
5966;BME280;3009;43.224;27.976;2023-05-16T10:36:10;100276.59;;;18.15;99.67
5966;BME280;3009;43.224;27.976;2023-05-16T10:38:40;100273.97;;;17.99;100.00
5966;BME280;3009;43.224;27.976;2023-05-16T10:41:09;100266.59;;;17.38;100.00
5966;BME280;3009;43.224;27.976;2023-05-16T10:43:38;100272.63;;;17.47;100.00
5966;BME280;3009;43.224;27.976;2023-05-16T10:46:11;100266.38;;;17.66;100.00
5966;BME280;3009;43.224;27.976;2023-05-16T10:48:41;100268.00;;;17.70;100.00
5966;BME280;3009;43.224;27.976;2023-05-16T10:51:34;100267.09;;;17.63;100.00
5966;BME280;3009;43.224;27.976;2023-05-16T10:54:07;100258.31;;;17.89;100.00
5966;BME280;3009;43.224;27.976;2023-05-16T10:56:37;100251.91;;;17.58;100.00
5966;BME280;3009;43.224;27.976;2023-05-16T10:59:21;100242.09;;;17.93;100.00
5966;BME280;3009;43.224;27.976;2023-05-16T11:01:55;100245.63;;;18.16;100.00
5966;BME280;3009;43.224;27.976;2023-05-16T11:04:47;100248.06;;;17.59;100.00
5966;BME280;3009;43.224;27.976;2023-05-16T11:07:17;100248.25;;;17.89;100.00
5966;BME280;3009;43.224;27.976;2023-05-16T11:09:52;100242.22;;;18.00;100.00
5966;BME280;3009;43.224;27.976;2023-05-16T11:12:36;100240.84;;;18.10;100.00
5966;BME280;3009;43.224;27.976;2023-05-16T11:15:17;100231.97;;;18.36;98.63
5966;BME280;3009;43.224;27.976;2023-05-16T11:17:47;100237.88;;;18.18;98.05
5966;BME280;3009;43.224;27.976;2023-05-16T11:20:26;100228.66;;;18.23;100.00
5966;BME280;3009;43.224;27.976;2023-05-16T11:23:22;100227.91;;;18.26;100.00
5966;BME280;3009;43.224;27.976;2023-05-16T11:25:53;100228.91;;;17.91;100.00
5966;BME280;3009;43.224;27.976;2023-05-16T11:28:23;100221.63;;;17.95;100.00
5966;BME280;3009;43.224;27.976;2023-05-16T11:30:54;100216.81;;;17.88;100.00
5966;BME280;3009;43.224;27.976;2023-05-16T11:33:24;100211.84;;;17.91;100.00
5966;BME280;3009;43.224;27.976;2023-05-16T11:36:06;100207.19;;;17.91;100.00
5966;BME280;3009;43.224;27.976;2023-05-16T11:38:37;100221.50;;;17.68;100.00
5966;BME280;3009;43.224;27.976;2023-05-16T11:41:09;100210.59;;;17.65;100.00
5966;BME280;3009;43.224;27.976;2023-05-16T11:43:39;100213.31;;;17.65;100.00
5966;BME280;3009;43.224;27.976;2023-05-16T11:46:10;100199.03;;;17.68;100.00
5966;BME280;3009;43.224;27.976;2023-05-16T11:48:40;100191.13;;;17.59;100.00
5966;BME280;3009;43.224;27.976;2023-05-16T11:51:12;100192.28;;;17.81;100.00
5966;BME280;3009;43.224;27.976;2023-05-16T11:53:45;100196.41;;;17.52;100.00
5966;BME280;3009;43.224;27.976;2023-05-16T11:56:15;100190.66;;;17.34;100.00
5966;BME280;3009;43.224;27.976;2023-05-16T11:58:45;100183.34;;;17.58;100.00
5966;BME280;3009;43.224;27.976;2023-05-16T12:01:16;100181.91;;;17.64;100.00
5966;BME280;3009;43.224;27.976;2023-05-16T12:03:53;100184.09;;;17.54;100.00
5966;BME280;3009;43.224;27.976;2023-05-16T12:06:22;100183.75;;;17.36;100.00
5966;BME280;3009;43.224;27.976;2023-05-16T12:08:51;100180.97;;;17.33;100.00
5966;BME280;3009;43.224;27.976;2023-05-16T12:11:22;100177.03;;;17.50;100.00
5966;BME280;3009;43.224;27.976;2023-05-16T12:13:51;100170.75;;;17.69;100.00
5966;BME280;3009;43.224;27.976;2023-05-16T12:16:19;100168.53;;;17.51;100.00
5966;BME280;3009;43.224;27.976;2023-05-16T12:18:49;100168.50;;;17.94;100.00
5966;BME280;3009;43.224;27.976;2023-05-16T12:21:19;100157.34;;;17.99;99.47
5966;BME280;3009;43.224;27.976;2023-05-16T12:23:47;100155.47;;;17.80;98.58
5966;BME280;3009;43.224;27.976;2023-05-16T12:26:24;100161.91;;;17.72;100.00
5966;BME280;3009;43.224;27.976;2023-05-16T12:28:56;100154.44;;;17.88;100.00
5966;BME280;3009;43.224;27.976;2023-05-16T12:31:26;100166.25;;;17.77;100.00
5966;BME280;3009;43.224;27.976;2023-05-16T12:34:00;100164.25;;;18.20;100.00
5966;BME280;3009;43.224;27.976;2023-05-16T12:36:31;100147.09;;;18.39;91.73
5966;BME280;3009;43.224;27.976;2023-05-16T12:39:00;100136.69;;;18.45;96.99
5966;BME280;3009;43.224;27.976;2023-05-16T12:41:30;100141.56;;;18.32;94.38
5966;BME280;3009;43.224;27.976;2023-05-16T12:44:11;100122.94;;;18.30;90.20
5966;BME280;3009;43.224;27.976;2023-05-16T12:46:44;100127.09;;;18.24;84.80
5966;BME280;3009;43.224;27.976;2023-05-16T12:49:18;100111.09;;;18.15;85.85
5966;BME280;3009;43.224;27.976;2023-05-16T12:51:49;100130.13;;;17.92;86.49
5966;BME280;3009;43.224;27.976;2023-05-16T12:54:18;100122.56;;;18.05;85.63
5966;BME280;3009;43.224;27.976;2023-05-16T12:56:49;100121.09;;;18.11;83.95
5966;BME280;3009;43.224;27.976;2023-05-16T12:59:17;100125.75;;;18.37;81.51
5966;BME280;3009;43.224;27.976;2023-05-16T13:01:46;100120.16;;;18.27;82.75
5966;BME280;3009;43.224;27.976;2023-05-16T13:04:16;100128.34;;;18.30;81.33
5966;BME280;3009;43.224;27.976;2023-05-16T13:06:46;100126.09;;;18.09;85.89
5966;BME280;3009;43.224;27.976;2023-05-16T13:09:25;100131.00;;;18.27;85.06